Time;durP1;ratioP1;P1;durP2;ratioP2;P2;SDS_P1;SDS_P2;PMS_P1;PMS_P2;Temp;Humidity;BMP_temperature;BMP_pressure;BME280_temperature;BME280_humidity;BME280_pressure;Samples;Min_cycle;Max_cycle;Signal;HPM_P1;HPM_P2
2021/12/20 10:19:05;;;;;;;13.98;8.93;;;;;;;;;;5097480;27;20499;-71
2021/12/20 10:21:36;;;;;;;17.38;10.65;;;;;;;;;;5109174;28;20047;-72
2021/12/20 10:24:03;;;;;;;18.15;11.13;;;;;;;;;;5106164;28;20047;-71
2021/12/20 10:26:29;;;;;;;16.83;10.50;;;;;;;;;;5100986;28;20471;-72
2021/12/20 10:28:56;;;;;;;20.80;11.75;;;;;;;;;;5116553;28;20057;-73
2021/12/20 10:31:23;;;;;;;14.77;9.02;;;;;;;;;;5102960;28;20023;-72
2021/12/20 10:33:55;;;;;;;15.85;8.88;;;;;;;;;;5102244;28;20494;-72
2021/12/20 10:36:22;;;;;;;12.70;9.20;;;;;;;;;;5107627;28;20106;-72
2021/12/20 10:38:56;;;;;;;14.90;9.10;;;;;;;;;;5108315;28;20040;-72
2021/12/20 10:41:52;;;;;;;18.48;10.93;;;;;;;;;;5106223;28;20098;-71
2021/12/20 10:44:18;;;;;;;25.70;13.38;;;;;;;;;;5100371;28;20032;-71
2021/12/20 10:46:52;;;;;;;35.22;17.83;;;;;;;;;;5102683;28;20059;-70
2021/12/20 10:49:19;;;;;;;34.58;17.63;;;;;;;;;;5102896;28;20479;-72
2021/12/20 10:51:48;;;;;;;49.13;23.38;;;;;;;;;;5104545;28;20067;-76
2021/12/20 10:54:17;;;;;;;56.45;25.52;;;;;;;;;;5103718;28;20027;-76
2021/12/20 10:57:03;;;;;;;63.72;27.63;;;;;;;;;;5105423;28;20057;-78
2021/12/20 10:59:31;;;;;;;105.72;40.40;;;;;;;;;;5103241;28;20497;-72
2021/12/20 11:04:34;;;;;;;130.68;56.20;;;;;;;;;;5099587;28;20044;-75
2021/12/20 11:09:44;;;;;;;75.63;33.67;;;;;;;;;;5103794;28;20118;-73
2021/12/20 11:12:15;;;;;;;57.88;26.13;;;;;;;;;;5106497;28;20097;-75
2021/12/20 11:14:46;;;;;;;49.20;24.30;;;;;;;;;;5108280;28;20032;-71
2021/12/20 11:17:13;;;;;;;37.00;18.67;;;;;;;;;;5111595;28;20055;-71
2021/12/20 11:19:43;;;;;;;36.85;16.50;;;;;;;;;;5107391;28;20058;-73
2021/12/20 11:22:18;;;;;;;25.70;12.93;;;;;;;;;;5106570;28;20410;-72
2021/12/20 11:24:52;;;;;;;36.85;18.40;;;;;;;;;;5100505;28;20478;-77
2021/12/20 11:27:25;;;;;;;27.75;15.50;;;;;;;;;;5100216;28;20107;-72
2021/12/20 11:29:54;;;;;;;28.55;17.40;;;;;;;;;;5098236;28;20500;-72
2021/12/20 11:32:21;;;;;;;34.67;20.80;;;;;;;;;;5094607;28;20024;-71
2021/12/20 11:34:47;;;;;;;31.88;18.55;;;;;;;;;;5094487;28;20024;-72
2021/12/20 11:37:15;;;;;;;34.90;17.52;;;;;;;;;;5094163;28;20028;-73
2021/12/20 11:39:42;;;;;;;30.65;17.23;;;;;;;;;;5090958;28;20435;-74
2021/12/20 11:42:08;;;;;;;27.58;16.15;;;;;;;;;;5094590;28;20028;-72
2021/12/20 11:44:37;;;;;;;31.25;18.98;;;;;;;;;;5095108;28;20062;-72
2021/12/20 11:47:06;;;;;;;28.40;17.38;;;;;;;;;;5089548;28;20032;-70
2021/12/20 11:49:35;;;;;;;31.13;17.92;;;;;;;;;;5095624;28;20027;-72
2021/12/20 11:52:15;;;;;;;29.67;17.08;;;;;;;;;;5089414;28;20110;-70
2021/12/20 11:54:49;;;;;;;25.15;15.52;;;;;;;;;;5092662;28;20023;-71
2021/12/20 11:57:31;;;;;;;25.65;16.08;;;;;;;;;;5086635;28;20112;-71
2021/12/20 11:59:59;;;;;;;24.98;14.13;;;;;;;;;;5089099;28;20163;-70
2021/12/20 12:02:25;;;;;;;25.17;15.65;;;;;;;;;;5088596;28;20028;-73
2021/12/20 12:04:55;;;;;;;28.83;17.60;;;;;;;;;;5092885;28;20115;-74
2021/12/20 12:07:22;;;;;;;29.52;17.23;;;;;;;;;;5090373;28;20560;-75
2021/12/20 12:10:21;;;;;;;32.47;16.90;;;;;;;;;;5093549;28;20474;-75
2021/12/20 12:12:49;;;;;;;34.65;19.35;;;;;;;;;;5010068;28;20072;-75
2021/12/20 12:15:28;;;;;;;37.75;20.63;;;;;;;;;;5008131;28;20038;-75
2021/12/20 12:17:54;;;;;;;37.45;18.73;;;;;;;;;;5010772;28;20104;-74
2021/12/20 12:20:39;;;;;;;34.65;19.27;;;;;;;;;;5009587;28;20546;-74
2021/12/20 12:23:11;;;;;;;32.67;19.60;;;;;;;;;;5006922;28;20042;-73
2021/12/20 12:25:40;;;;;;;36.33;19.55;;;;;;;;;;5006483;28;20141;-74
2021/12/20 12:28:07;;;;;;;32.25;18.77;;;;;;;;;;5010725;28;20036;-72
2021/12/20 12:30:35;;;;;;;33.95;18.33;;;;;;;;;;5008485;28;20077;-72
2021/12/20 12:33:01;;;;;;;38.15;20.60;;;;;;;;;;5007798;28;20029;-70
2021/12/20 12:35:39;;;;;;;39.70;21.55;;;;;;;;;;5006324;28;20042;-70
2021/12/20 12:38:14;;;;;;;43.42;23.48;;;;;;;;;;5000886;28;20037;-70
2021/12/20 12:40:40;;;;;;;39.60;23.02;;;;;;;;;;5008357;28;20033;-73
2021/12/20 12:43:06;;;;;;;39.90;22.85;;;;;;;;;;5010269;28;20034;-72
2021/12/20 12:45:51;;;;;;;40.92;23.45;;;;;;;;;;5012253;28;20060;-72
2021/12/20 12:48:32;;;;;;;50.20;26.23;;;;;;;;;;5045638;28;20039;-72
2021/12/20 12:50:58;;;;;;;;;;;;;;;;;;5093070;28;20028;-74
2021/12/20 12:53:39;;;;;;;88.60;53.45;;;;;;;;;;5088628;28;19908;-70
2021/12/20 12:56:24;;;;;;;50.17;29.27;;;;;;;;;;5088897;28;20028;-71
2021/12/20 12:59:09;;;;;;;47.88;27.38;;;;;;;;;;5088905;28;20039;-71
2021/12/20 13:01:35;;;;;;;47.55;26.90;;;;;;;;;;5095167;28;20427;-71
2021/12/20 13:04:01;;;;;;;48.22;27.38;;;;;;;;;;5094830;28;20024;-71
2021/12/20 13:06:27;;;;;;;49.28;26.98;;;;;;;;;;5096233;28;20090;-71
2021/12/20 13:08:54;;;;;;;44.17;25.70;;;;;;;;;;5099949;28;20023;-70
2021/12/20 13:11:25;;;;;;;50.25;27.17;;;;;;;;;;5095678;28;20075;-71
2021/12/20 13:14:06;;;;;;;46.63;25.63;;;;;;;;;;5098150;28;20051;-71
2021/12/20 13:16:32;;;;;;;48.20;28.20;;;;;;;;;;5093998;28;20031;-71
2021/12/20 13:18:59;;;;;;;51.13;26.83;;;;;;;;;;5094993;28;20043;-71
2021/12/20 13:21:37;;;;;;;48.65;25.42;;;;;;;;;;5100864;28;20028;-70
2021/12/20 13:24:14;;;;;;;43.03;24.48;;;;;;;;;;5094734;28;20459;-71
2021/12/20 13:26:40;;;;;;;40.33;22.60;;;;;;;;;;5091191;28;20036;-71
2021/12/20 13:29:06;;;;;;;38.78;22.00;;;;;;;;;;5096394;28;20024;-70
2021/12/20 13:31:32;;;;;;;39.83;21.35;;;;;;;;;;5103725;28;20024;-73
2021/12/20 13:34:00;;;;;;;37.05;20.63;;;;;;;;;;5100424;28;20027;-71
2021/12/20 13:36:26;;;;;;;34.42;19.73;;;;;;;;;;5093561;28;20032;-71
2021/12/20 13:38:54;;;;;;;32.35;20.55;;;;;;;;;;5098025;28;20542;-71
2021/12/20 13:41:22;;;;;;;36.03;21.05;;;;;;;;;;5095396;28;20028;-71
2021/12/20 13:43:52;;;;;;;38.65;23.95;;;;;;;;;;5099103;28;20375;-71
2021/12/20 13:46:23;;;;;;;22.30;13.70;;;;;;;;;;5102812;28;20034;-71
2021/12/20 13:48:52;;;;;;;33.53;19.92;;;;;;;;;;5095392;28;20432;-71
2021/12/20 13:51:19;;;;;;;27.77;17.73;;;;;;;;;;5093674;28;20019;-71
2021/12/20 13:53:45;;;;;;;31.58;19.02;;;;;;;;;;5092873;28;20096;-69
2021/12/20 13:56:11;;;;;;;28.95;17.40;;;;;;;;;;5092867;28;20085;-70
2021/12/20 13:58:41;;;;;;;33.05;19.23;;;;;;;;;;5090450;28;20595;-69
2021/12/20 14:01:07;;;;;;;23.77;14.82;;;;;;;;;;5090624;28;20032;-72
2021/12/20 14:03:38;;;;;;;28.05;17.00;;;;;;;;;;5090554;28;20028;-71
2021/12/20 14:06:04;;;;;;;24.60;15.80;;;;;;;;;;5092758;28;20015;-71
2021/12/20 14:08:31;;;;;;;159.20;79.45;;;;;;;;;;5090158;28;20051;-72
2021/12/20 14:10:57;;;;;;;53.78;30.55;;;;;;;;;;5088570;28;20403;-72
2021/12/20 14:13:27;;;;;;;49.50;27.38;;;;;;;;;;5098871;28;20036;-70
2021/12/20 14:15:57;;;;;;;31.73;19.77;;;;;;;;;;5087299;28;20028;-70
2021/12/20 14:18:31;;;;;;;30.77;18.40;;;;;;;;;;5091957;28;20400;-71
2021/12/20 14:20:57;;;;;;;31.05;17.88;;;;;;;;;;5094117;28;20054;-70
2021/12/20 14:23:31;;;;;;;30.27;16.92;;;;;;;;;;5096848;28;20038;-71
2021/12/20 14:26:06;;;;;;;28.92;15.80;;;;;;;;;;5091456;28;20032;-70
2021/12/20 14:28:33;;;;;;;21.08;14.45;;;;;;;;;;5093736;28;20028;-71
2021/12/20 14:31:01;;;;;;;23.63;14.55;;;;;;;;;;5098856;28;20020;-70
2021/12/20 14:33:34;;;;;;;22.77;13.57;;;;;;;;;;5094699;28;20498;-70
2021/12/20 14:36:06;;;;;;;20.73;13.05;;;;;;;;;;5093428;28;20099;-70
2021/12/20 14:38:34;;;;;;;19.95;12.25;;;;;;;;;;5090571;28;20032;-70
2021/12/20 14:41:01;;;;;;;18.85;12.30;;;;;;;;;;5090047;28;20029;-70
2021/12/20 14:43:31;;;;;;;17.42;11.25;;;;;;;;;;5101745;28;20103;-70
2021/12/20 14:46:25;;;;;;;16.13;10.75;;;;;;;;;;5095529;28;20604;-71
2021/12/20 14:48:58;;;;;;;16.05;11.07;;;;;;;;;;5086605;28;20028;-70
2021/12/20 14:51:26;;;;;;;20.92;12.20;;;;;;;;;;5093694;28;20526;-72
2021/12/20 14:54:04;;;;;;;18.25;11.57;;;;;;;;;;5096654;28;20044;-76
2021/12/20 14:56:31;;;;;;;20.60;11.35;;;;;;;;;;5088151;28;20024;-71
2021/12/20 14:58:57;;;;;;;18.70;12.50;;;;;;;;;;5093775;28;20447;-72
2021/12/20 15:01:23;;;;;;;19.48;12.23;;;;;;;;;;5098201;28;20024;-70
2021/12/20 15:03:51;;;;;;;18.90;12.38;;;;;;;;;;5093565;28;20039;-69
2021/12/20 15:06:17;;;;;;;20.15;13.15;;;;;;;;;;5092221;28;20032;-70
2021/12/20 15:08:43;;;;;;;22.10;14.32;;;;;;;;;;5099124;28;20023;-70
2021/12/20 15:11:09;;;;;;;20.45;12.77;;;;;;;;;;5095805;28;20036;-70
2021/12/20 15:13:35;;;;;;;21.50;13.45;;;;;;;;;;5096989;28;20032;-71
2021/12/20 15:16:01;;;;;;;22.20;13.20;;;;;;;;;;5101363;28;20070;-70
2021/12/20 15:18:29;;;;;;;22.13;13.95;;;;;;;;;;5091425;28;20113;-70
2021/12/20 15:20:55;;;;;;;24.27;13.90;;;;;;;;;;5091303;28;21219;-73
2021/12/20 15:23:22;;;;;;;20.73;13.57;;;;;;;;;;5093103;28;20034;-72
2021/12/20 15:25:49;;;;;;;20.98;13.73;;;;;;;;;;5095527;28;20031;-71
2021/12/20 15:28:15;;;;;;;23.13;13.35;;;;;;;;;;5093739;28;20024;-70
2021/12/20 15:30:41;;;;;;;22.00;13.13;;;;;;;;;;5091199;28;20024;-72
2021/12/20 15:33:10;;;;;;;20.02;13.18;;;;;;;;;;5093362;28;20024;-72
2021/12/20 15:35:38;;;;;;;23.23;13.57;;;;;;;;;;5093699;28;20090;-72
2021/12/20 15:38:04;;;;;;;24.98;13.75;;;;;;;;;;5094155;28;20559;-71
2021/12/20 15:40:30;;;;;;;24.33;14.10;;;;;;;;;;5092314;28;20032;-71
2021/12/20 15:43:00;;;;;;;23.80;14.52;;;;;;;;;;5093929;28;20035;-71
2021/12/20 15:45:30;;;;;;;24.42;13.65;;;;;;;;;;5096546;28;20102;-72
2021/12/20 15:47:56;;;;;;;20.95;13.88;;;;;;;;;;5095011;28;20022;-73
2021/12/20 15:50:23;;;;;;;23.23;14.50;;;;;;;;;;5095732;28;20475;-75
2021/12/20 15:52:49;;;;;;;22.90;13.95;;;;;;;;;;5094986;28;20507;-75
2021/12/20 15:55:15;;;;;;;22.30;14.43;;;;;;;;;;5095300;28;20020;-71
2021/12/20 15:57:42;;;;;;;22.63;15.40;;;;;;;;;;5087685;28;20487;-75
2021/12/20 16:00:09;;;;;;;22.75;13.48;;;;;;;;;;5086385;28;20505;-72
2021/12/20 16:02:35;;;;;;;21.73;12.75;;;;;;;;;;5087500;28;20028;-71
2021/12/20 16:05:02;;;;;;;21.35;13.48;;;;;;;;;;5089018;28;20343;-71
2021/12/20 16:07:28;;;;;;;20.65;13.18;;;;;;;;;;5095613;28;20081;-71
2021/12/20 16:09:54;;;;;;;22.50;12.73;;;;;;;;;;5088161;28;20028;-71
2021/12/20 16:12:21;;;;;;;20.55;13.50;;;;;;;;;;5097900;28;20111;-71
2021/12/20 16:14:47;;;;;;;22.98;13.38;;;;;;;;;;5093623;28;20152;-71
2021/12/20 16:17:13;;;;;;;21.17;13.20;;;;;;;;;;5093872;28;20420;-71
2021/12/20 16:19:39;;;;;;;19.85;12.65;;;;;;;;;;5100764;28;20016;-71
2021/12/20 16:22:05;;;;;;;20.40;14.07;;;;;;;;;;5102734;28;20031;-71
2021/12/20 16:24:32;;;;;;;22.95;14.82;;;;;;;;;;5092282;28;20020;-71
2021/12/20 16:26:58;;;;;;;22.48;14.40;;;;;;;;;;5094276;28;20509;-70
2021/12/20 16:29:25;;;;;;;22.75;14.27;;;;;;;;;;5076897;28;20031;-69
2021/12/20 16:31:53;;;;;;;22.50;14.40;;;;;;;;;;5097786;28;20025;-71
2021/12/20 16:34:19;;;;;;;26.90;15.55;;;;;;;;;;5102431;28;20087;-71
2021/12/20 16:36:46;;;;;;;26.80;16.67;;;;;;;;;;5093395;28;20031;-70
2021/12/20 16:39:12;;;;;;;27.70;16.40;;;;;;;;;;5099993;28;20034;-70
2021/12/20 16:41:38;;;;;;;32.70;21.42;;;;;;;;;;5095758;28;20048;-70
2021/12/20 16:44:17;;;;;;;33.28;20.58;;;;;;;;;;5095879;28;20534;-71
2021/12/20 16:46:44;;;;;;;34.85;19.75;;;;;;;;;;5096441;28;20476;-70
2021/12/20 16:49:14;;;;;;;30.73;19.42;;;;;;;;;;5102033;28;20024;-70
2021/12/20 16:51:42;;;;;;;38.30;23.67;;;;;;;;;;5096128;28;20051;-70
2021/12/20 16:54:11;;;;;;;46.22;25.35;;;;;;;;;;5102453;28;20069;-70
2021/12/20 16:56:38;;;;;;;42.80;24.85;;;;;;;;;;5098665;28;20019;-71
2021/12/20 16:59:04;;;;;;;44.15;24.67;;;;;;;;;;5098986;28;20084;-71
2021/12/20 17:01:30;;;;;;;59.40;29.25;;;;;;;;;;5103371;28;20051;-70
2021/12/20 17:06:34;;;;;;;48.00;26.30;;;;;;;;;;5095631;28;20027;-71
2021/12/20 17:09:01;;;;;;;41.72;23.45;;;;;;;;;;5102006;28;20020;-70
2021/12/20 17:11:27;;;;;;;37.70;22.10;;;;;;;;;;5098175;28;20100;-71
2021/12/20 17:13:53;;;;;;;33.60;21.48;;;;;;;;;;5099815;28;20106;-71
2021/12/20 17:16:22;;;;;;;38.03;21.95;;;;;;;;;;5103546;28;20031;-70
2021/12/20 17:18:48;;;;;;;39.67;23.50;;;;;;;;;;5099362;28;20048;-71
2021/12/20 17:21:14;;;;;;;47.28;27.77;;;;;;;;;;5100600;28;20055;-70
2021/12/20 17:23:40;;;;;;;46.33;26.52;;;;;;;;;;5098741;28;20028;-70
2021/12/20 17:26:07;;;;;;;63.78;35.25;;;;;;;;;;5097540;28;20036;-72
2021/12/20 17:28:33;;;;;;;52.03;29.27;;;;;;;;;;5101303;28;20483;-71
2021/12/20 17:30:59;;;;;;;43.30;24.98;;;;;;;;;;5091855;28;20115;-72
2021/12/20 17:33:26;;;;;;;39.58;24.45;;;;;;;;;;5095032;28;20364;-72
2021/12/20 17:35:52;;;;;;;49.65;28.58;;;;;;;;;;5091460;28;20466;-72
2021/12/20 17:38:18;;;;;;;49.90;29.65;;;;;;;;;;5094177;28;20415;-73
2021/12/20 17:40:44;;;;;;;46.13;27.50;;;;;;;;;;5091389;28;20050;-73
2021/12/20 17:43:11;;;;;;;44.38;26.13;;;;;;;;;;5092239;28;20170;-74
2021/12/20 17:45:37;;;;;;;48.65;27.27;;;;;;;;;;5093504;28;20050;-73
2021/12/20 17:48:03;;;;;;;56.88;32.58;;;;;;;;;;5090589;28;20095;-73
2021/12/20 17:50:30;;;;;;;49.67;30.40;;;;;;;;;;5090065;28;20027;-73
2021/12/20 17:52:56;;;;;;;47.55;29.45;;;;;;;;;;5091333;28;20064;-73
2021/12/20 17:55:22;;;;;;;45.25;27.10;;;;;;;;;;5096004;28;20024;-74
2021/12/20 17:57:49;;;;;;;41.53;26.90;;;;;;;;;;5092567;28;20043;-77
2021/12/20 18:00:17;;;;;;;54.00;33.28;;;;;;;;;;5090462;28;20119;-74
2021/12/20 18:02:43;;;;;;;47.58;29.48;;;;;;;;;;5088399;28;20085;-75
2021/12/20 18:05:12;;;;;;;43.70;29.15;;;;;;;;;;5091738;28;20548;-74
2021/12/20 18:07:39;;;;;;;45.38;27.88;;;;;;;;;;5093244;28;20471;-76
2021/12/20 18:10:06;;;;;;;47.08;28.38;;;;;;;;;;5091550;28;20024;-75
2021/12/20 18:12:33;;;;;;;43.92;27.30;;;;;;;;;;5089434;28;20019;-74
2021/12/20 18:14:59;;;;;;;60.10;33.08;;;;;;;;;;5090026;28;20455;-76
2021/12/20 18:17:25;;;;;;;58.95;33.03;;;;;;;;;;5095181;28;20051;-76
2021/12/20 18:19:51;;;;;;;65.47;33.90;;;;;;;;;;5089023;28;20020;-76
2021/12/20 18:22:19;;;;;;;68.90;37.38;;;;;;;;;;5095680;28;20031;-77
2021/12/20 18:24:45;;;;;;;80.05;40.08;;;;;;;;;;5087524;28;20081;-73
2021/12/20 18:27:12;;;;;;;73.90;38.67;;;;;;;;;;5091006;28;20448;-73
2021/12/20 18:29:38;;;;;;;74.93;39.85;;;;;;;;;;5096421;28;20091;-74
2021/12/20 18:32:04;;;;;;;65.40;35.72;;;;;;;;;;5095791;28;20088;-76
2021/12/20 18:34:31;;;;;;;61.92;35.63;;;;;;;;;;5098189;28;20438;-75
2021/12/20 18:36:57;;;;;;;58.10;34.30;;;;;;;;;;5087947;28;20024;-76
2021/12/20 18:39:24;;;;;;;53.20;32.83;;;;;;;;;;5086258;28;20118;-78
2021/12/20 18:41:50;;;;;;;65.05;35.33;;;;;;;;;;5098013;28;20039;-77
2021/12/20 18:44:16;;;;;;;100.15;46.85;;;;;;;;;;5099395;28;20034;-78
2021/12/20 18:46:42;;;;;;;90.55;45.35;;;;;;;;;;5101561;28;20394;-78
2021/12/20 18:49:11;;;;;;;101.47;49.85;;;;;;;;;;5088054;28;20498;-77
2021/12/20 18:51:38;;;;;;;93.57;45.45;;;;;;;;;;5092731;28;20028;-80
2021/12/20 18:54:04;;;;;;;96.35;45.63;;;;;;;;;;5089610;28;20035;-79
2021/12/20 18:56:30;;;;;;;99.38;46.95;;;;;;;;;;5088131;28;20078;-80
2021/12/20 18:58:57;;;;;;;78.28;40.88;;;;;;;;;;5088822;28;20039;-77
2021/12/20 19:01:25;;;;;;;68.13;36.97;;;;;;;;;;5074965;28;20036;-78
2021/12/20 19:03:51;;;;;;;77.95;37.35;;;;;;;;;;5094883;28;20020;-78
2021/12/20 19:06:18;;;;;;;62.17;34.15;;;;;;;;;;5102997;28;20027;-80
2021/12/20 19:08:44;;;;;;;60.22;33.58;;;;;;;;;;5087444;28;20029;-78
2021/12/20 19:11:18;;;;;;;50.65;27.92;;;;;;;;;;5097436;28;20510;-80
2021/12/20 19:13:52;;;;;;;51.03;28.70;;;;;;;;;;5103312;28;20027;-77
2021/12/20 19:16:18;;;;;;;52.22;29.45;;;;;;;;;;5096289;28;20081;-78
2021/12/20 19:18:45;;;;;;;56.30;30.13;;;;;;;;;;5091053;28;20059;-87
2021/12/20 19:21:11;;;;;;;59.60;32.90;;;;;;;;;;5098318;28;20035;-86
2021/12/20 19:23:37;;;;;;;55.20;31.08;;;;;;;;;;5100663;28;20031;-78
2021/12/20 19:26:04;;;;;;;52.50;31.50;;;;;;;;;;5098543;28;20028;-82
2021/12/20 19:28:31;;;;;;;50.10;31.58;;;;;;;;;;5081718;28;20028;-76
2021/12/20 19:30:57;;;;;;;57.17;33.47;;;;;;;;;;5086544;28;20026;-77
2021/12/20 19:33:25;;;;;;;54.30;33.08;;;;;;;;;;5092228;28;20070;-70
2021/12/20 19:35:51;;;;;;;54.55;34.45;;;;;;;;;;5085943;28;20040;-70
2021/12/20 19:38:18;;;;;;;61.05;35.13;;;;;;;;;;5095307;28;20093;-71
2021/12/20 19:40:44;;;;;;;66.82;35.90;;;;;;;;;;5080189;28;20089;-72
2021/12/20 19:43:10;;;;;;;57.70;30.70;;;;;;;;;;5090586;28;20024;-71
2021/12/20 19:45:37;;;;;;;51.35;29.25;;;;;;;;;;5093778;28;20020;-71
2021/12/20 19:48:03;;;;;;;45.55;26.55;;;;;;;;;;5097704;28;20535;-70
2021/12/20 19:50:30;;;;;;;41.88;25.50;;;;;;;;;;5099613;28;20125;-71
2021/12/20 19:52:56;;;;;;;42.88;25.20;;;;;;;;;;5101887;28;20028;-71
2021/12/20 19:55:22;;;;;;;47.00;26.92;;;;;;;;;;5100215;28;20027;-71
2021/12/20 19:57:48;;;;;;;46.50;28.15;;;;;;;;;;5099513;28;20127;-70
2021/12/20 20:00:15;;;;;;;55.35;30.98;;;;;;;;;;5101772;28;20020;-71
2021/12/20 20:02:41;;;;;;;51.60;31.35;;;;;;;;;;5086015;28;20034;-71
2021/12/20 20:05:07;;;;;;;56.28;33.30;;;;;;;;;;5098355;28;20016;-71
2021/12/20 20:07:34;;;;;;;53.47;31.52;;;;;;;;;;5100005;28;20106;-72
2021/12/20 20:10:00;;;;;;;57.42;32.38;;;;;;;;;;5095279;28;20027;-71
2021/12/20 20:12:26;;;;;;;53.10;29.73;;;;;;;;;;5093044;28;20027;-71
2021/12/20 20:14:52;;;;;;;52.42;30.55;;;;;;;;;;5103678;28;20024;-72
2021/12/20 20:17:19;;;;;;;50.92;30.40;;;;;;;;;;5101309;28;20580;-72
2021/12/20 20:19:46;;;;;;;51.50;32.60;;;;;;;;;;5092163;28;20040;-73
2021/12/20 20:22:12;;;;;;;52.67;34.25;;;;;;;;;;5088435;28;20016;-73
2021/12/20 20:24:39;;;;;;;61.13;32.35;;;;;;;;;;5087845;28;20039;-71
2021/12/20 20:27:10;;;;;;;59.60;35.42;;;;;;;;;;5093005;28;20066;-71
2021/12/20 20:29:37;;;;;;;67.53;40.25;;;;;;;;;;5090871;28;20402;-72
2021/12/20 20:32:03;;;;;;;66.53;40.22;;;;;;;;;;5069864;28;20101;-71
2021/12/20 20:34:29;;;;;;;67.68;39.97;;;;;;;;;;5095853;28;20498;-71
2021/12/20 20:36:56;;;;;;;61.35;37.85;;;;;;;;;;5088097;28;20024;-73
2021/12/20 20:39:23;;;;;;;57.42;35.58;;;;;;;;;;5090614;28;20044;-76
2021/12/20 20:41:50;;;;;;;53.90;33.50;;;;;;;;;;5090017;28;20391;-74
2021/12/20 20:44:16;;;;;;;57.72;32.60;;;;;;;;;;5089521;28;20501;-73
2021/12/20 20:46:47;;;;;;;49.78;30.50;;;;;;;;;;5097018;28;20023;-74
2021/12/20 20:49:13;;;;;;;;;;;;;;;;;;5091483;28;20020;-74
2021/12/20 20:51:39;;;;;;;45.78;27.67;;;;;;;;;;5094414;28;19951;-74
2021/12/20 20:54:06;;;;;;;50.08;29.77;;;;;;;;;;5095671;28;20035;-73
2021/12/20 20:56:32;;;;;;;64.13;35.45;;;;;;;;;;5099287;28;20521;-74
2021/12/20 20:58:59;;;;;;;58.58;34.20;;;;;;;;;;5088699;28;20139;-72
2021/12/20 21:01:34;;;;;;;57.03;33.42;;;;;;;;;;5089473;28;20075;-74
2021/12/20 21:04:05;;;;;;;53.33;31.50;;;;;;;;;;5095150;28;20024;-74
2021/12/20 21:06:33;;;;;;;45.28;27.27;;;;;;;;;;5089304;28;20117;-74
2021/12/20 21:09:02;;;;;;;43.08;27.17;;;;;;;;;;5095407;28;20720;-73
2021/12/20 21:11:28;;;;;;;41.95;25.33;;;;;;;;;;5089321;28;20496;-74
2021/12/20 21:13:54;;;;;;;37.55;23.00;;;;;;;;;;5089468;28;20107;-74
2021/12/20 21:16:20;;;;;;;38.05;23.13;;;;;;;;;;5088839;28;20067;-73
2021/12/20 21:18:47;;;;;;;47.75;29.83;;;;;;;;;;5089727;28;20043;-73
2021/12/20 21:21:13;;;;;;;41.15;26.35;;;;;;;;;;5090254;28;20031;-71
2021/12/20 21:23:39;;;;;;;41.85;24.40;;;;;;;;;;5095537;28;20517;-72
2021/12/20 21:26:09;;;;;;;43.03;25.25;;;;;;;;;;5092613;28;20026;-74
2021/12/20 21:28:35;;;;;;;53.55;29.70;;;;;;;;;;5074379;28;20023;-74
2021/12/20 21:31:02;;;;;;;56.35;33.13;;;;;;;;;;5079358;28;20146;-74
2021/12/20 21:33:29;;;;;;;70.50;40.33;;;;;;;;;;5082887;28;20376;-75
2021/12/20 21:35:55;;;;;;;68.45;40.10;;;;;;;;;;5088543;28;20024;-75
2021/12/20 21:38:22;;;;;;;64.63;38.38;;;;;;;;;;5071707;28;20449;-76
2021/12/20 21:40:49;;;;;;;59.35;36.40;;;;;;;;;;5087261;28;20055;-75
2021/12/20 21:43:16;;;;;;;55.15;35.03;;;;;;;;;;5084019;28;20206;-77
2021/12/20 21:45:42;;;;;;;48.90;30.50;;;;;;;;;;5084616;28;20078;-76
2021/12/20 21:48:09;;;;;;;47.90;29.52;;;;;;;;;;5087617;28;20530;-77
2021/12/20 21:50:35;;;;;;;41.92;27.13;;;;;;;;;;5087471;28;21349;-76
2021/12/20 21:53:02;;;;;;;49.15;27.05;;;;;;;;;;5091533;28;20098;-75
2021/12/20 21:55:28;;;;;;;43.90;27.05;;;;;;;;;;5093401;28;20023;-75
2021/12/20 21:57:54;;;;;;;43.22;26.23;;;;;;;;;;5095633;28;20057;-75
2021/12/20 22:00:20;;;;;;;40.47;24.52;;;;;;;;;;5085933;28;20020;-80
2021/12/20 22:02:47;;;;;;;38.80;23.25;;;;;;;;;;5081139;28;20502;-77
2021/12/20 22:05:13;;;;;;;40.85;23.42;;;;;;;;;;5085760;28;20068;-76
2021/12/20 22:07:39;;;;;;;39.40;22.92;;;;;;;;;;5086752;28;20016;-73
2021/12/20 22:10:06;;;;;;;39.40;21.98;;;;;;;;;;5092707;28;20046;-75
2021/12/20 22:12:32;;;;;;;40.55;22.58;;;;;;;;;;5086294;28;20028;-74
2021/12/20 22:14:58;;;;;;;41.95;21.88;;;;;;;;;;5084428;28;20032;-75
2021/12/20 22:17:24;;;;;;;36.00;21.45;;;;;;;;;;5089479;28;20501;-76
2021/12/20 22:19:51;;;;;;;39.47;21.33;;;;;;;;;;5091063;28;20035;-75
2021/12/20 22:22:18;;;;;;;36.38;21.35;;;;;;;;;;5086291;28;20055;-77
2021/12/20 22:24:44;;;;;;;36.25;20.90;;;;;;;;;;5086452;28;20032;-74
2021/12/20 22:27:10;;;;;;;35.30;21.30;;;;;;;;;;5090576;28;20035;-75
2021/12/20 22:29:36;;;;;;;37.88;22.15;;;;;;;;;;5087021;28;20536;-75
2021/12/20 22:32:03;;;;;;;35.90;21.35;;;;;;;;;;5086336;28;20024;-75
2021/12/20 22:34:30;;;;;;;38.35;20.63;;;;;;;;;;5084884;28;20029;-75
2021/12/20 22:37:00;;;;;;;39.95;24.63;;;;;;;;;;5091151;28;20020;-75
2021/12/20 22:39:29;;;;;;;47.00;27.02;;;;;;;;;;5093717;28;20399;-75
2021/12/20 22:41:56;;;;;;;36.33;23.38;;;;;;;;;;5099088;28;20667;-75
2021/12/20 22:44:22;;;;;;;47.38;25.08;;;;;;;;;;5082757;28;20554;-76
2021/12/20 22:46:48;;;;;;;45.83;24.17;;;;;;;;;;5085776;28;20024;-74
2021/12/20 22:49:15;;;;;;;44.42;23.63;;;;;;;;;;5086614;28;20140;-74
2021/12/20 22:51:41;;;;;;;41.33;23.08;;;;;;;;;;5088411;28;20016;-73
2021/12/20 22:54:07;;;;;;;38.80;22.33;;;;;;;;;;5089740;28;20043;-73
2021/12/20 22:56:33;;;;;;;40.47;23.42;;;;;;;;;;5087811;28;20020;-73
2021/12/20 22:59:00;;;;;;;37.72;22.42;;;;;;;;;;5089277;28;20109;-74
2021/12/20 23:01:26;;;;;;;37.05;21.98;;;;;;;;;;5084624;28;20394;-76
2021/12/20 23:03:53;;;;;;;38.30;22.98;;;;;;;;;;5087200;28;20051;-77
